createdAt,value
2023-02-09T00:00:12.190Z,76.00
2023-02-09T00:02:46.753Z,75.35
2023-02-09T00:05:20.314Z,72.30
2023-02-09T00:07:51.083Z,72.80
2023-02-09T00:10:21.981Z,68.68
2023-02-09T00:13:05.081Z,73.80
2023-02-09T00:15:35.877Z,75.22
2023-02-09T00:18:06.708Z,79.07
2023-02-09T00:20:40.133Z,86.47
2023-02-09T00:23:10.984Z,83.20
2023-02-09T00:25:42.574Z,80.10
2023-02-09T00:28:13.345Z,82.95
2023-02-09T00:30:44.395Z,79.03
2023-02-09T00:33:15.720Z,87.35
2023-02-09T00:35:49.882Z,77.55
2023-02-09T00:38:20.980Z,78.78
2023-02-09T00:40:52.577Z,74.07
2023-02-09T00:43:24.867Z,69.47
2023-02-09T00:45:56.892Z,60.10
2023-02-09T00:48:27.751Z,66.85
2023-02-09T00:51:03.400Z,62.58
2023-02-09T00:53:34.207Z,54.80
2023-02-09T00:56:04.914Z,57.25
2023-02-09T00:58:35.858Z,56.75
2023-02-09T01:01:06.735Z,70.22
2023-02-09T01:03:37.590Z,64.45
2023-02-09T01:06:11.985Z,70.97
2023-02-09T01:08:42.797Z,65.63
2023-02-09T01:11:18.139Z,69.65
2023-02-09T01:13:49.317Z,66.10
2023-02-09T01:16:21.557Z,71.07
2023-02-09T01:18:52.483Z,69.25
2023-02-09T01:21:27.394Z,63.25
2023-02-09T01:23:58.699Z,60.45
2023-02-09T01:26:29.510Z,64.40
2023-02-09T01:29:00.321Z,58.88
2023-02-09T01:31:34.307Z,56.60
2023-02-09T01:34:06.697Z,57.85
2023-02-09T01:36:40.403Z,56.90
2023-02-09T01:39:11.182Z,55.05
2023-02-09T01:41:42.751Z,52.70
2023-02-09T01:44:43.736Z,51.95
2023-02-09T01:47:19.264Z,53.75
2023-02-09T01:49:53.850Z,58.42
2023-02-09T01:52:32.094Z,55.83
2023-02-09T01:55:08.325Z,54.60
2023-02-09T01:57:45.182Z,53.97
2023-02-09T02:00:19.895Z,53.97
2023-02-09T02:02:55.550Z,53.55
2023-02-09T02:05:29.179Z,44.08
2023-02-09T02:08:07.530Z,54.72
2023-02-09T02:10:38.438Z,51.38
2023-02-09T02:13:09.178Z,45.25
2023-02-09T02:15:49.352Z,43.35
2023-02-09T02:18:39.334Z,50.88
2023-02-09T02:21:42.645Z,58.05
2023-02-09T02:24:38.267Z,57.88
2023-02-09T02:27:11.803Z,55.10
2023-02-09T02:30:13.752Z,52.40
2023-02-09T02:32:58.108Z,50.85
2023-02-09T02:35:37.282Z,55.65
2023-02-09T02:38:18.629Z,47.53
2023-02-09T02:40:58.422Z,49.35
2023-02-09T02:43:42.343Z,50.33
2023-02-09T02:46:22.125Z,52.35
2023-02-09T02:49:00.329Z,48.00
2023-02-09T02:51:36.810Z,54.63
2023-02-09T02:54:12.597Z,50.38
2023-02-09T02:56:46.714Z,42.95
2023-02-09T02:59:21.392Z,54.55
2023-02-09T03:01:58.564Z,49.25
2023-02-09T03:04:33.530Z,47.35
2023-02-09T03:07:07.497Z,52.40
2023-02-09T03:09:38.411Z,52.83
2023-02-09T03:12:18.680Z,49.30
2023-02-09T03:14:59.482Z,47.75
2023-02-09T03:17:40.384Z,47.22
2023-02-09T03:20:17.677Z,50.05
2023-02-09T03:22:56.484Z,51.85
2023-02-09T03:25:31.860Z,54.72
2023-02-09T03:28:07.117Z,54.53
2023-02-09T03:30:42.267Z,51.35
2023-02-09T03:33:22.582Z,54.13
2023-02-09T03:35:58.751Z,46.72
2023-02-09T03:38:30.717Z,50.45
2023-02-09T03:41:01.469Z,48.08
2023-02-09T03:43:44.478Z,51.10
2023-02-09T03:46:15.671Z,46.50
2023-02-09T03:48:46.358Z,50.95
2023-02-09T03:51:19.975Z,47.30
2023-02-09T03:53:50.801Z,47.35
2023-02-09T03:56:25.086Z,43.00
2023-02-09T03:58:56.053Z,42.28
2023-02-09T04:01:26.945Z,43.72
2023-02-09T04:03:58.937Z,44.05
2023-02-09T04:06:33.965Z,43.67
2023-02-09T04:09:05.698Z,45.20
2023-02-09T04:11:36.441Z,43.22
2023-02-09T04:14:09.322Z,42.30
2023-02-09T04:16:40.790Z,44.35
2023-02-09T04:19:12.657Z,50.05
2023-02-09T04:21:46.063Z,52.67
2023-02-09T04:24:17.050Z,49.63
2023-02-09T04:26:47.892Z,49.78
2023-02-09T04:29:21.565Z,47.47
2023-02-09T04:31:52.441Z,50.50
2023-02-09T04:34:24.879Z,45.28
2023-02-09T04:36:58.326Z,43.75
2023-02-09T04:39:29.784Z,44.63
2023-02-09T04:42:00.710Z,35.97
2023-02-09T04:44:31.741Z,42.45
2023-02-09T04:47:02.546Z,42.05
2023-02-09T04:49:33.372Z,41.88
2023-02-09T04:52:07.048Z,37.53
2023-02-09T04:54:37.783Z,42.35
2023-02-09T04:57:20.813Z,43.58
2023-02-09T04:59:51.661Z,42.38
2023-02-09T05:02:23.109Z,40.25
2023-02-09T05:04:53.849Z,39.40
2023-02-09T05:07:27.217Z,39.85
2023-02-09T05:09:58.037Z,37.95
2023-02-09T05:12:29.016Z,41.28
2023-02-09T05:14:59.768Z,35.33
2023-02-09T05:17:35.224Z,40.65
2023-02-09T05:20:06.043Z,43.30
2023-02-09T05:22:39.462Z,42.50
2023-02-09T05:25:10.566Z,39.83
2023-02-09T05:27:41.362Z,39.42
2023-02-09T05:30:13.963Z,38.25
2023-02-09T05:32:44.803Z,47.97
2023-02-09T05:35:15.832Z,40.42
2023-02-09T05:37:49.854Z,42.20
2023-02-09T05:40:21.247Z,41.05
2023-02-09T05:42:51.997Z,42.38
2023-02-09T05:45:23.543Z,41.35
2023-02-09T05:47:54.313Z,44.28
2023-02-09T05:50:25.303Z,41.45
2023-02-09T05:53:02.287Z,40.20
2023-02-09T05:55:33.272Z,38.78
2023-02-09T05:58:04.074Z,38.70
2023-02-09T06:00:34.868Z,37.90
2023-02-09T06:03:05.901Z,38.22
2023-02-09T06:05:36.713Z,49.45
2023-02-09T06:08:10.228Z,47.58
2023-02-09T06:10:41.022Z,39.05
2023-02-09T06:13:11.843Z,40.20
2023-02-09T06:15:42.651Z,50.00
2023-02-09T06:18:13.578Z,47.40
2023-02-09T06:20:44.699Z,47.97
2023-02-09T06:23:18.389Z,47.95
2023-02-09T06:25:53.332Z,50.17
2023-02-09T06:28:24.526Z,45.08
2023-02-09T06:30:57.125Z,45.78
2023-02-09T06:33:28.118Z,43.85
2023-02-09T06:35:58.977Z,46.55
2023-02-09T06:38:34.078Z,50.13
2023-02-09T06:41:05.174Z,53.33
2023-02-09T06:43:36.456Z,58.15
2023-02-09T06:46:11.467Z,57.38
2023-02-09T06:48:42.903Z,59.00
2023-02-09T06:51:15.291Z,58.10
2023-02-09T06:53:48.807Z,52.03
2023-02-09T06:56:20.435Z,56.03
2023-02-09T06:58:51.334Z,51.55
2023-02-09T07:01:22.506Z,47.10
2023-02-09T07:03:53.435Z,56.58
2023-02-09T07:06:24.411Z,56.42
2023-02-09T07:08:57.779Z,62.83
2023-02-09T07:11:28.659Z,54.80
2023-02-09T07:13:59.499Z,64.10
2023-02-09T07:16:30.457Z,62.20
2023-02-09T07:19:03.011Z,57.22
2023-02-09T07:21:33.906Z,57.63
2023-02-09T07:24:07.874Z,60.08
2023-02-09T07:26:38.687Z,54.15
2023-02-09T07:29:10.965Z,49.22
2023-02-09T07:31:42.993Z,49.72
2023-02-09T07:34:13.862Z,48.67
2023-02-09T07:36:47.332Z,50.10
2023-02-09T07:39:22.543Z,53.63
2023-02-09T07:41:53.592Z,50.10
2023-02-09T07:44:27.276Z,69.53
2023-02-09T07:46:58.077Z,54.83
2023-02-09T07:49:28.827Z,58.53
2023-02-09T07:51:59.569Z,59.50
2023-02-09T07:54:33.040Z,54.70
2023-02-09T07:57:03.861Z,53.85
2023-02-09T07:59:34.570Z,55.33
2023-02-09T08:02:05.390Z,53.05
2023-02-09T08:04:36.276Z,55.50
2023-02-09T08:07:07.039Z,50.92
2023-02-09T08:09:40.612Z,54.53
2023-02-09T08:12:12.053Z,63.25
2023-02-09T08:14:48.617Z,62.33
2023-02-09T08:17:28.189Z,63.22
2023-02-09T08:20:03.949Z,59.60
2023-02-09T08:22:38.810Z,58.65
2023-02-09T08:25:13.503Z,60.50
2023-02-09T08:27:45.775Z,60.60
2023-02-09T08:30:18.219Z,62.45
2023-02-09T08:32:49.139Z,62.55
2023-02-09T08:35:20.467Z,58.55
2023-02-09T08:37:51.311Z,59.00
2023-02-09T08:40:25.462Z,61.50
2023-02-09T08:42:57.156Z,62.17
2023-02-09T08:45:29.125Z,58.63
2023-02-09T08:48:00.061Z,62.50
2023-02-09T08:50:31.020Z,56.15
2023-02-09T08:53:03.155Z,57.13
2023-02-09T08:55:40.181Z,55.20
2023-02-09T08:58:10.983Z,52.10
2023-02-09T09:00:41.848Z,49.92
2023-02-09T09:03:13.195Z,52.80
2023-02-09T09:05:44.400Z,58.10
2023-02-09T09:08:15.470Z,53.53
2023-02-09T09:10:48.914Z,55.10
2023-02-09T09:13:22.661Z,54.28
2023-02-09T09:15:54.366Z,54.83
2023-02-09T09:18:25.494Z,54.75
2023-02-09T09:20:56.954Z,52.00
2023-02-09T09:23:28.052Z,59.78
2023-02-09T09:26:04.543Z,53.95
2023-02-09T09:28:35.599Z,60.50
2023-02-09T09:31:11.342Z,56.00
2023-02-09T09:33:42.980Z,51.75
2023-02-09T09:36:15.108Z,56.83
2023-02-09T09:38:46.422Z,56.40
2023-02-09T09:41:33.028Z,52.40
2023-02-09T09:44:05.631Z,54.47
2023-02-09T09:46:40.059Z,53.78
2023-02-09T09:49:21.752Z,57.92
2023-02-09T09:51:56.629Z,56.78
2023-02-09T09:54:30.893Z,63.28
2023-02-09T09:57:06.258Z,55.97
2023-02-09T09:59:40.589Z,52.38
2023-02-09T10:02:21.738Z,56.88
2023-02-09T10:04:53.355Z,59.40
2023-02-09T10:07:25.351Z,55.58
2023-02-09T10:10:00.442Z,50.58
2023-02-09T10:12:42.706Z,54.60
2023-02-09T10:15:30.232Z,58.70
2023-02-09T10:18:02.337Z,53.05
2023-02-09T10:20:48.906Z,60.08
2023-02-09T10:23:22.275Z,57.30
2023-02-09T10:26:05.025Z,56.30
2023-02-09T10:28:42.967Z,50.78
2023-02-09T10:31:18.387Z,48.92
2023-02-09T10:33:53.662Z,54.38
2023-02-09T10:36:36.440Z,54.15
2023-02-09T10:39:16.941Z,64.43
2023-02-09T10:41:50.859Z,55.70
2023-02-09T10:44:30.136Z,53.65
2023-02-09T10:47:14.414Z,53.90
2023-02-09T10:49:45.314Z,55.28
2023-02-09T10:52:20.368Z,60.78
2023-02-09T10:54:53.892Z,56.47
2023-02-09T10:57:28.335Z,54.88
2023-02-09T11:00:03.547Z,59.50
2023-02-09T11:02:40.563Z,57.10
2023-02-09T11:08:01.229Z,50.75
2023-02-09T11:10:35.484Z,50.00
2023-02-09T11:13:12.683Z,50.00
2023-02-09T11:15:53.621Z,50.83
2023-02-09T11:18:29.363Z,44.70
2023-02-09T11:21:09.068Z,48.63
2023-02-09T11:23:48.070Z,51.35
2023-02-09T11:26:29.003Z,46.45
2023-02-09T11:29:06.528Z,47.30
2023-02-09T11:31:54.825Z,47.47
2023-02-09T11:34:44.589Z,46.22
2023-02-09T11:37:27.166Z,51.53
2023-02-09T11:40:06.375Z,53.70
2023-02-09T11:42:47.603Z,51.88
2023-02-09T11:45:23.893Z,51.15
2023-02-09T11:48:07.781Z,48.72
2023-02-09T11:50:46.168Z,51.75
2023-02-09T11:53:26.105Z,49.22
2023-02-09T11:56:00.327Z,48.25
2023-02-09T11:58:46.225Z,46.47
2023-02-09T12:01:25.437Z,50.67
2023-02-09T12:04:07.506Z,54.15
2023-02-09T12:06:44.548Z,56.22
2023-02-09T12:09:34.367Z,52.53
2023-02-09T12:12:15.166Z,50.95
2023-02-09T12:15:03.301Z,44.65
2023-02-09T12:17:42.482Z,47.15
2023-02-09T12:20:49.778Z,45.85
2023-02-09T12:23:28.538Z,42.10
2023-02-09T12:26:00.608Z,44.60
2023-02-09T12:28:44.048Z,43.78
2023-02-09T12:31:26.572Z,42.67
2023-02-09T12:34:17.177Z,42.08
2023-02-09T12:37:17.621Z,46.03
2023-02-09T12:40:22.782Z,48.72
2023-02-09T12:43:28.393Z,40.47
2023-02-09T12:46:24.236Z,38.92
2023-02-09T12:49:21.004Z,38.22
2023-02-09T12:52:13.374Z,44.13
2023-02-09T12:54:56.970Z,38.80
2023-02-09T12:58:00.934Z,40.33
2023-02-09T13:00:56.877Z,51.15
2023-02-09T13:03:29.610Z,38.22
2023-02-09T13:06:03.615Z,46.03
2023-02-09T13:08:40.028Z,43.53
2023-02-09T13:11:24.983Z,42.20
2023-02-09T13:13:59.157Z,41.45
2023-02-09T13:17:02.275Z,46.25
2023-02-09T13:20:08.078Z,42.97
2023-02-09T13:23:02.083Z,40.80
2023-02-09T13:25:37.398Z,39.45
2023-02-09T13:28:13.570Z,40.15
2023-02-09T13:30:44.586Z,39.63
2023-02-09T13:33:36.562Z,43.22
2023-02-09T13:36:26.622Z,43.08
2023-02-09T13:38:57.580Z,37.97
2023-02-09T13:41:38.822Z,40.15
2023-02-09T13:44:26.419Z,38.75
2023-02-09T13:46:59.223Z,38.20
2023-02-09T13:49:31.747Z,34.25
2023-02-09T13:52:20.298Z,33.30
2023-02-09T13:54:51.153Z,37.83
2023-02-09T13:57:34.617Z,36.08
2023-02-09T14:00:13.087Z,38.20
2023-02-09T14:02:52.951Z,38.42
2023-02-09T14:05:32.917Z,34.00
2023-02-09T14:08:07.015Z,36.35
2023-02-09T14:10:38.415Z,32.10
2023-02-09T14:13:18.568Z,37.95
2023-02-09T14:16:04.685Z,34.65
2023-02-09T14:18:50.590Z,32.85
2023-02-09T14:21:27.907Z,31.73
2023-02-09T14:24:22.070Z,35.25
2023-02-09T14:26:56.192Z,36.55
2023-02-09T14:29:29.571Z,36.25
2023-02-09T14:32:02.866Z,38.08
2023-02-09T14:34:41.584Z,32.95
2023-02-09T14:37:32.996Z,33.95
2023-02-09T14:40:27.308Z,32.45
2023-02-09T14:43:04.042Z,31.77
2023-02-09T14:45:45.576Z,30.90
2023-02-09T14:48:23.528Z,33.05
2023-02-09T14:50:56.996Z,36.33
2023-02-09T14:53:31.416Z,33.38
2023-02-09T14:56:04.993Z,32.95
2023-02-09T14:58:37.048Z,27.73
2023-02-09T15:01:09.326Z,31.13
2023-02-09T15:03:40.734Z,33.20
2023-02-09T15:06:11.843Z,34.88
2023-02-09T15:08:42.705Z,32.67
2023-02-09T15:11:34.410Z,30.77
2023-02-09T15:14:06.777Z,31.77
2023-02-09T15:16:37.582Z,26.95
2023-02-09T15:19:16.860Z,27.13
2023-02-09T15:21:58.876Z,27.48
2023-02-09T15:24:37.432Z,27.80
2023-02-09T15:27:23.358Z,26.55
2023-02-09T15:29:54.774Z,25.58
2023-02-09T15:32:26.666Z,27.88
2023-02-09T15:34:57.517Z,29.55
2023-02-09T15:37:31.521Z,30.27
2023-02-09T15:40:05.406Z,29.25
2023-02-09T15:42:51.040Z,26.92
2023-02-09T15:45:36.107Z,24.95
2023-02-09T15:48:07.897Z,29.80
2023-02-09T15:50:41.288Z,28.00
2023-02-09T15:53:15.760Z,29.70
2023-02-09T15:55:46.801Z,30.48
2023-02-09T15:58:23.042Z,30.05
2023-02-09T16:00:53.755Z,26.85
2023-02-09T16:03:25.147Z,28.48
2023-02-09T16:06:01.003Z,28.95
2023-02-09T16:08:33.821Z,26.63
2023-02-09T16:11:09.628Z,26.98
2023-02-09T16:13:43.146Z,30.63
2023-02-09T16:16:17.350Z,26.48
2023-02-09T16:18:48.709Z,26.98
2023-02-09T16:21:26.694Z,25.98
2023-02-09T16:23:59.360Z,27.85
2023-02-09T16:26:32.246Z,26.13
2023-02-09T16:29:06.457Z,32.10
2023-02-09T16:31:39.360Z,30.92
2023-02-09T16:34:15.609Z,30.80
2023-02-09T16:36:48.590Z,30.58
2023-02-09T16:39:21.769Z,36.30
2023-02-09T16:41:53.817Z,34.28
2023-02-09T16:44:30.662Z,39.72
2023-02-09T16:47:04.869Z,35.22
2023-02-09T16:49:39.646Z,35.92
2023-02-09T16:52:17.904Z,28.17
2023-02-09T16:54:52.219Z,32.83
2023-02-09T16:57:25.382Z,27.75
2023-02-09T16:59:59.373Z,30.25
2023-02-09T17:02:50.296Z,27.38
2023-02-09T17:05:24.228Z,27.77
2023-02-09T17:07:58.048Z,29.38
2023-02-09T17:10:31.709Z,33.30
2023-02-09T17:13:04.879Z,37.17
2023-02-09T17:15:42.993Z,34.92
2023-02-09T17:18:19.654Z,34.28
2023-02-09T17:20:53.811Z,32.38
2023-02-09T17:23:29.723Z,35.15
2023-02-09T17:26:01.130Z,32.40
2023-02-09T17:28:32.562Z,38.17
2023-02-09T17:31:07.385Z,33.53
2023-02-09T17:33:41.163Z,40.17
2023-02-09T17:36:31.133Z,50.30
2023-02-09T17:39:04.053Z,52.78
2023-02-09T17:41:41.078Z,56.50
2023-02-09T17:44:26.546Z,54.55
2023-02-09T17:47:08.757Z,51.50
2023-02-09T17:49:39.586Z,60.78
2023-02-09T17:52:15.033Z,64.03
2023-02-09T17:54:45.931Z,55.38
2023-02-09T17:57:17.821Z,56.35
2023-02-09T17:59:49.095Z,50.33
2023-02-09T18:02:22.811Z,54.80
2023-02-09T18:04:53.620Z,56.38
2023-02-09T18:07:24.335Z,53.33
2023-02-09T18:09:55.229Z,55.70
2023-02-09T18:12:29.303Z,53.42
2023-02-09T18:15:00.367Z,56.97
2023-02-09T18:17:34.160Z,50.50
2023-02-09T18:20:05.136Z,60.33
2023-02-09T18:22:36.086Z,60.80
2023-02-09T18:25:07.242Z,66.43
2023-02-09T18:27:38.253Z,63.33
2023-02-09T18:30:10.302Z,60.38
2023-02-09T18:32:43.895Z,54.10
2023-02-09T18:35:22.279Z,56.03
2023-02-09T18:37:53.568Z,61.33
2023-02-09T18:40:24.343Z,64.45
2023-02-09T18:42:56.105Z,56.28
2023-02-09T18:45:27.492Z,57.72
2023-02-09T18:48:01.042Z,52.33
2023-02-09T18:50:33.653Z,56.40
2023-02-09T18:53:06.002Z,54.65
2023-02-09T18:55:37.999Z,58.47
2023-02-09T18:58:11.175Z,60.95
2023-02-09T19:00:41.942Z,73.13
2023-02-09T19:03:20.149Z,71.85
2023-02-09T19:05:52.088Z,69.43
2023-02-09T19:08:25.771Z,65.32
2023-02-09T19:10:56.689Z,72.90
2023-02-09T19:13:29.698Z,66.05
2023-02-09T19:16:00.536Z,61.65
2023-02-09T19:18:34.739Z,68.07
2023-02-09T19:21:08.201Z,65.25
2023-02-09T19:23:38.930Z,64.10
2023-02-09T19:26:09.722Z,62.47
2023-02-09T19:28:40.512Z,56.53
2023-02-09T19:31:15.902Z,57.22
2023-02-09T19:33:49.433Z,57.08
2023-02-09T19:36:20.243Z,59.03
2023-02-09T19:38:51.130Z,56.83
2023-02-09T19:41:23.666Z,58.45
2023-02-09T19:43:57.943Z,61.25
2023-02-09T19:46:28.892Z,59.25
2023-02-09T19:49:02.512Z,58.97
2023-02-09T19:51:33.337Z,52.53
2023-02-09T19:54:04.116Z,58.78
2023-02-09T19:56:35.218Z,60.72
2023-02-09T19:59:06.251Z,64.18
2023-02-09T20:01:38.743Z,63.00
2023-02-09T20:04:12.413Z,70.55
2023-02-09T20:06:43.328Z,66.47
2023-02-09T20:09:16.752Z,64.47
2023-02-09T20:11:50.674Z,61.10
2023-02-09T20:14:21.521Z,62.97
2023-02-09T20:16:52.539Z,64.68
2023-02-09T20:19:27.106Z,70.63
2023-02-09T20:21:58.061Z,65.13
2023-02-09T20:24:29.172Z,67.28
2023-02-09T20:27:00.030Z,66.78
2023-02-09T20:29:30.933Z,68.38
2023-02-09T20:32:02.038Z,67.95
2023-02-09T20:34:35.462Z,65.40
2023-02-09T20:37:06.300Z,66.95
2023-02-09T20:39:37.209Z,71.45
2023-02-09T20:42:20.387Z,59.92
2023-02-09T20:45:03.483Z,58.17
2023-02-09T20:47:34.310Z,63.30
2023-02-09T20:50:08.325Z,66.72
2023-02-09T20:52:42.217Z,64.60
2023-02-09T20:55:12.970Z,67.15
2023-02-09T20:57:44.487Z,59.38
2023-02-09T21:00:16.421Z,64.50
2023-02-09T21:02:47.315Z,58.88
2023-02-09T21:05:20.926Z,64.53
2023-02-09T21:07:52.498Z,67.45
2023-02-09T21:10:23.622Z,67.47
2023-02-09T21:12:54.681Z,64.00
2023-02-09T21:15:25.544Z,64.78
2023-02-09T21:17:56.504Z,63.03
2023-02-09T21:20:32.416Z,61.63
2023-02-09T21:23:03.276Z,60.00
2023-02-09T21:25:34.401Z,52.88
2023-02-09T21:28:05.601Z,52.60
2023-02-09T21:30:36.454Z,55.17
2023-02-09T21:33:07.366Z,49.67
2023-02-09T21:35:42.593Z,49.35
2023-02-09T21:38:13.513Z,53.20
2023-02-09T21:40:44.485Z,73.75
2023-02-09T21:43:15.597Z,71.30
2023-02-09T21:45:46.379Z,60.72
2023-02-09T21:48:17.149Z,66.47
2023-02-09T21:50:50.763Z,61.47
2023-02-09T21:53:21.558Z,70.05
2023-02-09T21:55:52.376Z,58.53
2023-02-09T21:58:23.277Z,58.97
2023-02-09T22:01:00.548Z,53.40
2023-02-09T22:03:31.523Z,60.00
2023-02-09T22:06:06.086Z,63.90
2023-02-09T22:08:37.174Z,56.78
2023-02-09T22:11:08.906Z,52.25
2023-02-09T22:13:39.880Z,56.33
2023-02-09T22:16:12.585Z,69.82
2023-02-09T22:18:43.589Z,63.70
2023-02-09T22:21:17.043Z,67.70
2023-02-09T22:23:47.860Z,58.05
2023-02-09T22:26:18.668Z,58.15
2023-02-09T22:28:49.611Z,52.97
2023-02-09T22:31:23.176Z,61.75
2023-02-09T22:33:58.617Z,61.22
2023-02-09T22:36:32.023Z,55.83
2023-02-09T22:39:03.578Z,56.50
2023-02-09T22:41:34.986Z,51.28
2023-02-09T22:44:15.478Z,56.38
2023-02-09T22:46:48.171Z,61.35
2023-02-09T22:49:20.899Z,59.20
2023-02-09T22:51:54.357Z,57.08
2023-02-09T22:54:25.179Z,51.22
2023-02-09T22:56:55.993Z,52.75
2023-02-09T22:59:26.803Z,49.67
2023-02-09T23:01:57.764Z,49.60
2023-02-09T23:04:28.962Z,48.47
2023-02-09T23:07:02.561Z,50.10
2023-02-09T23:09:33.418Z,50.65
2023-02-09T23:12:04.203Z,49.72
2023-02-09T23:14:34.968Z,53.38
2023-02-09T23:17:05.720Z,48.08
2023-02-09T23:19:36.474Z,43.95
2023-02-09T23:22:09.863Z,46.33
2023-02-09T23:24:40.674Z,45.17
2023-02-09T23:27:11.529Z,41.95
2023-02-09T23:29:42.451Z,43.70
2023-02-09T23:32:13.317Z,39.97
2023-02-09T23:34:44.132Z,42.45
2023-02-09T23:37:34.846Z,40.20
2023-02-09T23:40:08.076Z,41.35
2023-02-09T23:42:38.782Z,39.38
2023-02-09T23:45:10.173Z,39.60
2023-02-09T23:47:40.966Z,42.92
2023-02-09T23:50:12.058Z,43.80
2023-02-09T23:52:45.635Z,45.72
2023-02-09T23:55:16.510Z,45.75
2023-02-09T23:57:47.318Z,40.40
